Terminal Aerodrome Forecast
Issued by NWS Pocatello, ID

Home | Current Version | Previous Version | Text Only | Print | Product List | Glossary On
Versions: 1 2 3 4 5 6 7 8 9 10 11 12 13 14 15 16 17 18
823
FTUS45 KPIH 141000 AAA
TAFIDA
TAF AMD
KIDA 141000Z 1410/1506 19015G25KT P6SM VCSH SCT030 OVC060
     FM141600 22014G24KT P6SM -SHSNRA SCT015 OVC030
     FM142200 22016G26KT P6SM VCSH SCT015 BKN040=

USA.gov is the U.S. government's official web portal to all federal, state and local government web resources and services.